sensor_id;sensor_type;location;lat;lon;timestamp;P1;durP1;ratioP1;P2;durP2;ratioP2
58250;SDS011;51449;51.676;5.812;2023-04-07T00:01:58;19.07;;;10.43;;
58250;SDS011;51449;51.676;5.812;2023-04-07T00:04:20;15.30;;;9.27;;
58250;SDS011;51449;51.676;5.812;2023-04-07T00:06:42;18.33;;;10.13;;
58250;SDS011;51449;51.676;5.812;2023-04-07T00:09:04;18.80;;;9.77;;
58250;SDS011;51449;51.676;5.812;2023-04-07T00:11:26;16.97;;;9.63;;
58250;SDS011;51449;51.676;5.812;2023-04-07T00:13:48;18.40;;;10.83;;
58250;SDS011;51449;51.676;5.812;2023-04-07T00:16:09;17.03;;;10.07;;
58250;SDS011;51449;51.676;5.812;2023-04-07T00:18:31;18.37;;;10.10;;
58250;SDS011;51449;51.676;5.812;2023-04-07T00:20:53;19.23;;;10.73;;
58250;SDS011;51449;51.676;5.812;2023-04-07T00:23:15;17.30;;;10.00;;
58250;SDS011;51449;51.676;5.812;2023-04-07T00:25:36;17.87;;;9.93;;
58250;SDS011;51449;51.676;5.812;2023-04-07T00:27:58;19.23;;;9.60;;
58250;SDS011;51449;51.676;5.812;2023-04-07T00:30:20;15.93;;;9.03;;
58250;SDS011;51449;51.676;5.812;2023-04-07T00:32:41;16.87;;;9.33;;
58250;SDS011;51449;51.676;5.812;2023-04-07T00:35:05;14.95;;;8.63;;
58250;SDS011;51449;51.676;5.812;2023-04-07T00:37:27;17.23;;;8.57;;
58250;SDS011;51449;51.676;5.812;2023-04-07T00:39:50;17.83;;;9.30;;
58250;SDS011;51449;51.676;5.812;2023-04-07T00:42:12;16.83;;;8.70;;
58250;SDS011;51449;51.676;5.812;2023-04-07T00:44:34;18.67;;;10.13;;
58250;SDS011;51449;51.676;5.812;2023-04-07T00:46:56;16.03;;;9.80;;
58250;SDS011;51449;51.676;5.812;2023-04-07T00:49:17;18.10;;;9.00;;
58250;SDS011;51449;51.676;5.812;2023-04-07T00:51:39;14.97;;;8.60;;
58250;SDS011;51449;51.676;5.812;2023-04-07T00:54:01;15.83;;;9.10;;
58250;SDS011;51449;51.676;5.812;2023-04-07T00:56:23;15.23;;;9.53;;
58250;SDS011;51449;51.676;5.812;2023-04-07T00:58:45;15.43;;;8.90;;
58250;SDS011;51449;51.676;5.812;2023-04-07T01:01:08;20.67;;;9.30;;
58250;SDS011;51449;51.676;5.812;2023-04-07T01:03:48;15.63;;;8.83;;
58250;SDS011;51449;51.676;5.812;2023-04-07T01:06:23;15.97;;;9.60;;
58250;SDS011;51449;51.676;5.812;2023-04-07T01:08:55;17.30;;;9.77;;
58250;SDS011;51449;51.676;5.812;2023-04-07T01:11:27;16.55;;;10.38;;
58250;SDS011;51449;51.676;5.812;2023-04-07T01:14:02;17.27;;;10.80;;
58250;SDS011;51449;51.676;5.812;2023-04-07T01:16:41;17.77;;;10.57;;
58250;SDS011;51449;51.676;5.812;2023-04-07T01:19:15;16.13;;;10.33;;
58250;SDS011;51449;51.676;5.812;2023-04-07T01:21:49;19.17;;;11.63;;
58250;SDS011;51449;51.676;5.812;2023-04-07T01:27:18;19.73;;;9.40;;
58250;SDS011;51449;51.676;5.812;2023-04-07T01:29:54;17.93;;;8.90;;
58250;SDS011;51449;51.676;5.812;2023-04-07T01:32:18;13.55;;;8.07;;
58250;SDS011;51449;51.676;5.812;2023-04-07T01:34:46;18.77;;;8.70;;
58250;SDS011;51449;51.676;5.812;2023-04-07T01:37:11;15.47;;;8.70;;
58250;SDS011;51449;51.676;5.812;2023-04-07T01:39:36;13.97;;;7.77;;
58250;SDS011;51449;51.676;5.812;2023-04-07T01:42:00;12.07;;;7.28;;
58250;SDS011;51449;51.676;5.812;2023-04-07T01:44:25;10.37;;;6.97;;
58250;SDS011;51449;51.676;5.812;2023-04-07T01:46:49;12.53;;;7.43;;
58250;SDS011;51449;51.676;5.812;2023-04-07T01:49:11;13.83;;;7.80;;
58250;SDS011;51449;51.676;5.812;2023-04-07T01:51:35;11.45;;;6.20;;
58250;SDS011;51449;51.676;5.812;2023-04-07T01:53:59;13.37;;;6.73;;
58250;SDS011;51449;51.676;5.812;2023-04-07T01:56:22;14.18;;;6.55;;
58250;SDS011;51449;51.676;5.812;2023-04-07T01:58:47;10.40;;;5.93;;
58250;SDS011;51449;51.676;5.812;2023-04-07T02:01:12;12.93;;;6.35;;
58250;SDS011;51449;51.676;5.812;2023-04-07T02:03:38;9.60;;;5.45;;
58250;SDS011;51449;51.676;5.812;2023-04-07T02:06:17;11.03;;;6.43;;
58250;SDS011;51449;51.676;5.812;2023-04-07T02:08:46;12.70;;;6.27;;
58250;SDS011;51449;51.676;5.812;2023-04-07T02:11:15;13.10;;;6.27;;
58250;SDS011;51449;51.676;5.812;2023-04-07T02:13:45;15.00;;;6.67;;
58250;SDS011;51449;51.676;5.812;2023-04-07T02:16:08;10.40;;;5.73;;
58250;SDS011;51449;51.676;5.812;2023-04-07T02:18:30;12.77;;;5.30;;
58250;SDS011;51449;51.676;5.812;2023-04-07T02:20:54;10.33;;;5.57;;
58250;SDS011;51449;51.676;5.812;2023-04-07T02:23:16;10.07;;;4.70;;
58250;SDS011;51449;51.676;5.812;2023-04-07T02:25:38;9.47;;;5.00;;
58250;SDS011;51449;51.676;5.812;2023-04-07T02:28:00;11.40;;;5.67;;
58250;SDS011;51449;51.676;5.812;2023-04-07T02:30:22;12.80;;;5.40;;
58250;SDS011;51449;51.676;5.812;2023-04-07T02:32:44;13.67;;;5.30;;
58250;SDS011;51449;51.676;5.812;2023-04-07T02:35:07;9.37;;;5.03;;
58250;SDS011;51449;51.676;5.812;2023-04-07T02:37:30;8.70;;;5.10;;
58250;SDS011;51449;51.676;5.812;2023-04-07T02:39:52;13.33;;;5.30;;
58250;SDS011;51449;51.676;5.812;2023-04-07T02:42:14;10.50;;;5.17;;
58250;SDS011;51449;51.676;5.812;2023-04-07T02:44:35;10.23;;;4.90;;
58250;SDS011;51449;51.676;5.812;2023-04-07T02:46:57;9.47;;;5.07;;
58250;SDS011;51449;51.676;5.812;2023-04-07T02:49:19;11.60;;;4.90;;
58250;SDS011;51449;51.676;5.812;2023-04-07T02:51:40;11.90;;;5.27;;
58250;SDS011;51449;51.676;5.812;2023-04-07T02:54:02;11.17;;;4.80;;
58250;SDS011;51449;51.676;5.812;2023-04-07T02:56:24;12.93;;;5.97;;
58250;SDS011;51449;51.676;5.812;2023-04-07T02:58:46;10.47;;;5.77;;
58250;SDS011;51449;51.676;5.812;2023-04-07T03:01:07;9.77;;;5.70;;
58250;SDS011;51449;51.676;5.812;2023-04-07T03:03:29;13.27;;;6.00;;
58250;SDS011;51449;51.676;5.812;2023-04-07T03:06:01;13.90;;;6.63;;
58250;SDS011;51449;51.676;5.812;2023-04-07T03:08:24;11.43;;;6.07;;
58250;SDS011;51449;51.676;5.812;2023-04-07T03:10:47;11.50;;;6.00;;
58250;SDS011;51449;51.676;5.812;2023-04-07T03:13:11;15.13;;;6.03;;
58250;SDS011;51449;51.676;5.812;2023-04-07T03:15:36;11.87;;;5.97;;
58250;SDS011;51449;51.676;5.812;2023-04-07T03:17:59;13.67;;;6.63;;
58250;SDS011;51449;51.676;5.812;2023-04-07T03:20:22;11.87;;;5.90;;
58250;SDS011;51449;51.676;5.812;2023-04-07T03:22:43;12.47;;;6.30;;
58250;SDS011;51449;51.676;5.812;2023-04-07T03:25:14;14.20;;;6.67;;
58250;SDS011;51449;51.676;5.812;2023-04-07T03:27:36;11.77;;;6.03;;
58250;SDS011;51449;51.676;5.812;2023-04-07T03:30:00;12.43;;;5.85;;
58250;SDS011;51449;51.676;5.812;2023-04-07T03:32:23;15.33;;;6.13;;
58250;SDS011;51449;51.676;5.812;2023-04-07T03:34:45;12.60;;;6.47;;
58250;SDS011;51449;51.676;5.812;2023-04-07T03:37:07;12.70;;;6.87;;
58250;SDS011;51449;51.676;5.812;2023-04-07T03:39:30;14.50;;;7.23;;
58250;SDS011;51449;51.676;5.812;2023-04-07T03:41:54;11.32;;;6.20;;
58250;SDS011;51449;51.676;5.812;2023-04-07T03:44:19;15.10;;;7.17;;
58250;SDS011;51449;51.676;5.812;2023-04-07T03:46:41;11.50;;;6.27;;
58250;SDS011;51449;51.676;5.812;2023-04-07T03:49:03;13.87;;;6.47;;
58250;SDS011;51449;51.676;5.812;2023-04-07T03:51:26;12.27;;;6.63;;
58250;SDS011;51449;51.676;5.812;2023-04-07T03:53:49;11.88;;;6.22;;
58250;SDS011;51449;51.676;5.812;2023-04-07T03:56:28;13.00;;;6.83;;
58250;SDS011;51449;51.676;5.812;2023-04-07T03:58:51;14.43;;;6.17;;
58250;SDS011;51449;51.676;5.812;2023-04-07T04:01:21;17.07;;;6.83;;
58250;SDS011;51449;51.676;5.812;2023-04-07T04:03:45;14.13;;;6.60;;
58250;SDS011;51449;51.676;5.812;2023-04-07T04:06:17;13.07;;;6.73;;
58250;SDS011;51449;51.676;5.812;2023-04-07T04:08:40;10.87;;;6.57;;
58250;SDS011;51449;51.676;5.812;2023-04-07T04:11:03;13.97;;;7.17;;
58250;SDS011;51449;51.676;5.812;2023-04-07T04:13:30;15.57;;;6.90;;
58250;SDS011;51449;51.676;5.812;2023-04-07T04:15:56;13.67;;;6.93;;
58250;SDS011;51449;51.676;5.812;2023-04-07T04:18:18;14.00;;;6.60;;
58250;SDS011;51449;51.676;5.812;2023-04-07T04:20:41;14.50;;;6.93;;
58250;SDS011;51449;51.676;5.812;2023-04-07T04:23:04;15.47;;;6.63;;
58250;SDS011;51449;51.676;5.812;2023-04-07T04:25:26;23.37;;;7.37;;
58250;SDS011;51449;51.676;5.812;2023-04-07T04:27:50;13.73;;;6.70;;
58250;SDS011;51449;51.676;5.812;2023-04-07T04:30:18;13.80;;;6.30;;
58250;SDS011;51449;51.676;5.812;2023-04-07T04:32:44;16.43;;;6.90;;
58250;SDS011;51449;51.676;5.812;2023-04-07T04:35:06;12.40;;;6.13;;
58250;SDS011;51449;51.676;5.812;2023-04-07T04:37:37;13.40;;;6.27;;
58250;SDS011;51449;51.676;5.812;2023-04-07T04:40:03;13.37;;;6.00;;
58250;SDS011;51449;51.676;5.812;2023-04-07T04:42:29;14.10;;;6.07;;
58250;SDS011;51449;51.676;5.812;2023-04-07T04:44:55;14.70;;;6.07;;
58250;SDS011;51449;51.676;5.812;2023-04-07T04:47:18;15.77;;;6.47;;
58250;SDS011;51449;51.676;5.812;2023-04-07T04:49:40;14.13;;;6.67;;
58250;SDS011;51449;51.676;5.812;2023-04-07T04:52:02;19.13;;;6.50;;
58250;SDS011;51449;51.676;5.812;2023-04-07T04:54:31;15.47;;;5.57;;
58250;SDS011;51449;51.676;5.812;2023-04-07T04:56:53;17.27;;;5.90;;
58250;SDS011;51449;51.676;5.812;2023-04-07T04:59:17;13.88;;;5.95;;
58250;SDS011;51449;51.676;5.812;2023-04-07T05:01:53;15.07;;;5.77;;
58250;SDS011;51449;51.676;5.812;2023-04-07T05:04:15;15.10;;;5.60;;
58250;SDS011;51449;51.676;5.812;2023-04-07T05:06:43;13.17;;;6.37;;
58250;SDS011;51449;51.676;5.812;2023-04-07T05:09:07;13.75;;;5.97;;
58250;SDS011;51449;51.676;5.812;2023-04-07T05:11:39;15.30;;;7.00;;
58250;SDS011;51449;51.676;5.812;2023-04-07T05:14:03;10.87;;;5.93;;
58250;SDS011;51449;51.676;5.812;2023-04-07T05:16:25;12.37;;;5.20;;
58250;SDS011;51449;51.676;5.812;2023-04-07T05:18:48;15.97;;;6.30;;
58250;SDS011;51449;51.676;5.812;2023-04-07T05:21:10;14.10;;;7.00;;
58250;SDS011;51449;51.676;5.812;2023-04-07T05:23:31;13.47;;;6.67;;
58250;SDS011;51449;51.676;5.812;2023-04-07T05:25:53;15.37;;;6.43;;
58250;SDS011;51449;51.676;5.812;2023-04-07T05:28:16;16.83;;;6.93;;
58250;SDS011;51449;51.676;5.812;2023-04-07T05:30:39;15.83;;;6.60;;
58250;SDS011;51449;51.676;5.812;2023-04-07T05:33:01;14.13;;;7.07;;
58250;SDS011;51449;51.676;5.812;2023-04-07T05:35:37;14.13;;;6.57;;
58250;SDS011;51449;51.676;5.812;2023-04-07T05:37:59;18.37;;;7.33;;
58250;SDS011;51449;51.676;5.812;2023-04-07T05:40:21;15.40;;;7.47;;
58250;SDS011;51449;51.676;5.812;2023-04-07T05:42:43;17.73;;;7.57;;
58250;SDS011;51449;51.676;5.812;2023-04-07T05:45:06;18.40;;;7.57;;
58250;SDS011;51449;51.676;5.812;2023-04-07T05:47:32;20.93;;;7.87;;
58250;SDS011;51449;51.676;5.812;2023-04-07T05:49:54;20.33;;;7.60;;
58250;SDS011;51449;51.676;5.812;2023-04-07T05:52:16;18.37;;;8.27;;
58250;SDS011;51449;51.676;5.812;2023-04-07T05:54:44;17.40;;;7.47;;
58250;SDS011;51449;51.676;5.812;2023-04-07T05:57:07;18.38;;;7.95;;
58250;SDS011;51449;51.676;5.812;2023-04-07T05:59:34;16.97;;;7.57;;
58250;SDS011;51449;51.676;5.812;2023-04-07T06:01:57;20.00;;;8.03;;
58250;SDS011;51449;51.676;5.812;2023-04-07T06:04:19;19.93;;;8.50;;
58250;SDS011;51449;51.676;5.812;2023-04-07T06:06:43;22.10;;;9.60;;
58250;SDS011;51449;51.676;5.812;2023-04-07T06:09:04;20.37;;;8.80;;
58250;SDS011;51449;51.676;5.812;2023-04-07T06:11:28;25.42;;;10.18;;
58250;SDS011;51449;51.676;5.812;2023-04-07T06:13:50;17.27;;;9.23;;
58250;SDS011;51449;51.676;5.812;2023-04-07T06:16:12;23.27;;;9.93;;
58250;SDS011;51449;51.676;5.812;2023-04-07T06:18:33;21.83;;;8.87;;
58250;SDS011;51449;51.676;5.812;2023-04-07T06:20:55;16.63;;;9.10;;
58250;SDS011;51449;51.676;5.812;2023-04-07T06:23:19;21.67;;;8.00;;
58250;SDS011;51449;51.676;5.812;2023-04-07T06:25:42;19.50;;;8.93;;
58250;SDS011;51449;51.676;5.812;2023-04-07T06:28:04;19.53;;;8.47;;
58250;SDS011;51449;51.676;5.812;2023-04-07T06:30:26;24.10;;;9.53;;
58250;SDS011;51449;51.676;5.812;2023-04-07T06:32:48;16.83;;;8.73;;
58250;SDS011;51449;51.676;5.812;2023-04-07T06:35:09;19.60;;;9.10;;
58250;SDS011;51449;51.676;5.812;2023-04-07T06:37:31;19.03;;;8.80;;
58250;SDS011;51449;51.676;5.812;2023-04-07T06:39:53;23.73;;;9.23;;
58250;SDS011;51449;51.676;5.812;2023-04-07T06:42:16;19.87;;;9.27;;
58250;SDS011;51449;51.676;5.812;2023-04-07T06:44:45;27.93;;;10.13;;
58250;SDS011;51449;51.676;5.812;2023-04-07T06:47:07;23.67;;;9.60;;
58250;SDS011;51449;51.676;5.812;2023-04-07T06:49:29;24.80;;;10.90;;
58250;SDS011;51449;51.676;5.812;2023-04-07T06:51:51;26.20;;;9.90;;
58250;SDS011;51449;51.676;5.812;2023-04-07T06:54:12;21.87;;;10.37;;
58250;SDS011;51449;51.676;5.812;2023-04-07T06:56:36;23.10;;;10.73;;
58250;SDS011;51449;51.676;5.812;2023-04-07T06:58:57;21.50;;;9.40;;
58250;SDS011;51449;51.676;5.812;2023-04-07T07:01:21;21.67;;;10.87;;
58250;SDS011;51449;51.676;5.812;2023-04-07T07:03:43;20.57;;;9.67;;
58250;SDS011;51449;51.676;5.812;2023-04-07T07:06:05;23.77;;;11.53;;
58250;SDS011;51449;51.676;5.812;2023-04-07T07:08:27;21.90;;;10.43;;
58250;SDS011;51449;51.676;5.812;2023-04-07T07:10:49;21.00;;;10.03;;
58250;SDS011;51449;51.676;5.812;2023-04-07T07:13:11;22.20;;;10.70;;
58250;SDS011;51449;51.676;5.812;2023-04-07T07:15:32;24.63;;;10.03;;
58250;SDS011;51449;51.676;5.812;2023-04-07T07:17:54;18.10;;;9.37;;
58250;SDS011;51449;51.676;5.812;2023-04-07T07:20:16;21.13;;;9.70;;
58250;SDS011;51449;51.676;5.812;2023-04-07T07:22:40;21.17;;;10.20;;
58250;SDS011;51449;51.676;5.812;2023-04-07T07:25:02;19.75;;;9.20;;
58250;SDS011;51449;51.676;5.812;2023-04-07T07:27:24;22.27;;;10.00;;
58250;SDS011;51449;51.676;5.812;2023-04-07T07:29:46;20.33;;;10.20;;
58250;SDS011;51449;51.676;5.812;2023-04-07T07:32:07;17.43;;;8.80;;
58250;SDS011;51449;51.676;5.812;2023-04-07T07:34:29;20.10;;;9.20;;
58250;SDS011;51449;51.676;5.812;2023-04-07T07:36:51;16.60;;;8.90;;
58250;SDS011;51449;51.676;5.812;2023-04-07T07:39:14;18.37;;;9.13;;
58250;SDS011;51449;51.676;5.812;2023-04-07T07:41:35;17.77;;;9.40;;
58250;SDS011;51449;51.676;5.812;2023-04-07T07:43:57;18.97;;;9.70;;
58250;SDS011;51449;51.676;5.812;2023-04-07T07:46:19;18.27;;;9.50;;
58250;SDS011;51449;51.676;5.812;2023-04-07T07:48:41;20.63;;;9.57;;
58250;SDS011;51449;51.676;5.812;2023-04-07T07:51:03;19.30;;;10.37;;
58250;SDS011;51449;51.676;5.812;2023-04-07T07:53:25;18.23;;;10.07;;
58250;SDS011;51449;51.676;5.812;2023-04-07T07:55:46;19.30;;;10.00;;
58250;SDS011;51449;51.676;5.812;2023-04-07T07:58:08;19.30;;;10.23;;
58250;SDS011;51449;51.676;5.812;2023-04-07T08:00:30;19.53;;;10.87;;
58250;SDS011;51449;51.676;5.812;2023-04-07T08:02:52;19.40;;;10.50;;
58250;SDS011;51449;51.676;5.812;2023-04-07T08:05:14;17.00;;;10.30;;
58250;SDS011;51449;51.676;5.812;2023-04-07T08:07:35;16.07;;;9.40;;
58250;SDS011;51449;51.676;5.812;2023-04-07T08:09:58;17.07;;;9.70;;
58250;SDS011;51449;51.676;5.812;2023-04-07T08:12:20;19.57;;;9.93;;
58250;SDS011;51449;51.676;5.812;2023-04-07T08:14:42;19.57;;;9.63;;
58250;SDS011;51449;51.676;5.812;2023-04-07T08:17:04;17.57;;;9.20;;
58250;SDS011;51449;51.676;5.812;2023-04-07T08:19:25;19.23;;;10.03;;
58250;SDS011;51449;51.676;5.812;2023-04-07T08:21:47;16.73;;;8.30;;
58250;SDS011;51449;51.676;5.812;2023-04-07T08:24:09;13.10;;;7.50;;
58250;SDS011;51449;51.676;5.812;2023-04-07T08:26:32;13.02;;;6.00;;
58250;SDS011;51449;51.676;5.812;2023-04-07T08:28:54;13.63;;;5.73;;
58250;SDS011;51449;51.676;5.812;2023-04-07T08:31:18;11.97;;;5.13;;
58250;SDS011;51449;51.676;5.812;2023-04-07T08:33:40;9.73;;;5.00;;
58250;SDS011;51449;51.676;5.812;2023-04-07T08:36:02;8.87;;;5.23;;
58250;SDS011;51449;51.676;5.812;2023-04-07T08:38:24;9.10;;;5.87;;
58250;SDS011;51449;51.676;5.812;2023-04-07T08:40:47;10.30;;;5.50;;
58250;SDS011;51449;51.676;5.812;2023-04-07T08:43:18;11.53;;;6.67;;
58250;SDS011;51449;51.676;5.812;2023-04-07T08:45:41;12.67;;;7.10;;
58250;SDS011;51449;51.676;5.812;2023-04-07T08:48:11;12.93;;;6.97;;
58250;SDS011;51449;51.676;5.812;2023-04-07T08:50:39;16.35;;;7.47;;
58250;SDS011;51449;51.676;5.812;2023-04-07T08:53:05;13.63;;;8.43;;
58250;SDS011;51449;51.676;5.812;2023-04-07T08:55:34;13.90;;;8.03;;
58250;SDS011;51449;51.676;5.812;2023-04-07T08:57:56;15.07;;;7.97;;
58250;SDS011;51449;51.676;5.812;2023-04-07T09:00:22;15.73;;;7.90;;
58250;SDS011;51449;51.676;5.812;2023-04-07T09:02:44;16.03;;;8.73;;
58250;SDS011;51449;51.676;5.812;2023-04-07T09:05:10;15.93;;;7.63;;
58250;SDS011;51449;51.676;5.812;2023-04-07T09:07:36;15.97;;;7.80;;
58250;SDS011;51449;51.676;5.812;2023-04-07T09:10:00;22.90;;;8.33;;
58250;SDS011;51449;51.676;5.812;2023-04-07T09:12:23;17.10;;;8.10;;
58250;SDS011;51449;51.676;5.812;2023-04-07T09:14:46;17.73;;;8.00;;
58250;SDS011;51449;51.676;5.812;2023-04-07T09:17:07;14.50;;;8.20;;
58250;SDS011;51449;51.676;5.812;2023-04-07T09:19:29;18.20;;;8.23;;
58250;SDS011;51449;51.676;5.812;2023-04-07T09:21:53;15.60;;;8.20;;
58250;SDS011;51449;51.676;5.812;2023-04-07T09:24:28;10.77;;;6.23;;
58250;SDS011;51449;51.676;5.812;2023-04-07T09:27:09;13.83;;;6.87;;
58250;SDS011;51449;51.676;5.812;2023-04-07T09:29:49;12.60;;;6.33;;
58250;SDS011;51449;51.676;5.812;2023-04-07T09:32:34;12.00;;;6.50;;
58250;SDS011;51449;51.676;5.812;2023-04-07T09:34:59;12.13;;;6.93;;
58250;SDS011;51449;51.676;5.812;2023-04-07T09:37:21;13.17;;;6.60;;
58250;SDS011;51449;51.676;5.812;2023-04-07T09:39:50;22.63;;;8.87;;
58250;SDS011;51449;51.676;5.812;2023-04-07T09:42:14;13.00;;;7.27;;
58250;SDS011;51449;51.676;5.812;2023-04-07T09:44:38;14.00;;;7.50;;
58250;SDS011;51449;51.676;5.812;2023-04-07T09:47:03;14.50;;;7.33;;
58250;SDS011;51449;51.676;5.812;2023-04-07T09:49:25;11.47;;;7.07;;
58250;SDS011;51449;51.676;5.812;2023-04-07T09:52:05;14.97;;;7.93;;
58250;SDS011;51449;51.676;5.812;2023-04-07T09:54:31;16.27;;;8.30;;
58250;SDS011;51449;51.676;5.812;2023-04-07T09:56:58;13.23;;;7.43;;
58250;SDS011;51449;51.676;5.812;2023-04-07T09:59:22;14.05;;;7.55;;
58250;SDS011;51449;51.676;5.812;2023-04-07T10:01:45;13.53;;;7.27;;
58250;SDS011;51449;51.676;5.812;2023-04-07T10:04:07;14.93;;;7.87;;
58250;SDS011;51449;51.676;5.812;2023-04-07T10:06:29;18.47;;;9.00;;
58250;SDS011;51449;51.676;5.812;2023-04-07T10:08:51;16.77;;;8.80;;
58250;SDS011;51449;51.676;5.812;2023-04-07T10:11:13;15.40;;;7.97;;
58250;SDS011;51449;51.676;5.812;2023-04-07T10:13:37;15.90;;;8.37;;
58250;SDS011;51449;51.676;5.812;2023-04-07T10:16:02;15.07;;;8.10;;
58250;SDS011;51449;51.676;5.812;2023-04-07T10:18:30;17.97;;;8.63;;
58250;SDS011;51449;51.676;5.812;2023-04-07T10:20:54;14.00;;;8.43;;
58250;SDS011;51449;51.676;5.812;2023-04-07T10:23:20;15.38;;;8.90;;
58250;SDS011;51449;51.676;5.812;2023-04-07T10:25:50;16.90;;;8.33;;
58250;SDS011;51449;51.676;5.812;2023-04-07T10:28:19;12.97;;;8.63;;
58250;SDS011;51449;51.676;5.812;2023-04-07T10:30:45;15.53;;;8.10;;
58250;SDS011;51449;51.676;5.812;2023-04-07T10:33:09;14.95;;;7.50;;
58250;SDS011;51449;51.676;5.812;2023-04-07T10:38:27;17.90;;;8.03;;
58250;SDS011;51449;51.676;5.812;2023-04-07T10:40:49;14.67;;;8.30;;
58250;SDS011;51449;51.676;5.812;2023-04-07T10:43:11;16.90;;;8.63;;
58250;SDS011;51449;51.676;5.812;2023-04-07T10:48:15;14.83;;;8.10;;
58250;SDS011;51449;51.676;5.812;2023-04-07T10:50:39;16.80;;;8.40;;
58250;SDS011;51449;51.676;5.812;2023-04-07T10:53:05;16.23;;;7.73;;
58250;SDS011;51449;51.676;5.812;2023-04-07T10:56:02;15.43;;;7.67;;
58250;SDS011;51449;51.676;5.812;2023-04-07T11:03:30;11.67;;;6.07;;
58250;SDS011;51449;51.676;5.812;2023-04-07T11:06:07;11.40;;;5.10;;
58250;SDS011;51449;51.676;5.812;2023-04-07T11:08:32;9.37;;;4.20;;
58250;SDS011;51449;51.676;5.812;2023-04-07T11:10:55;11.57;;;4.97;;
58250;SDS011;51449;51.676;5.812;2023-04-07T11:13:17;10.20;;;4.70;;
58250;SDS011;51449;51.676;5.812;2023-04-07T11:15:39;10.10;;;4.77;;
58250;SDS011;51449;51.676;5.812;2023-04-07T11:18:17;12.43;;;4.87;;
58250;SDS011;51449;51.676;5.812;2023-04-07T11:20:53;8.80;;;3.43;;
58250;SDS011;51449;51.676;5.812;2023-04-07T11:23:19;10.27;;;3.80;;
58250;SDS011;51449;51.676;5.812;2023-04-07T11:25:45;7.37;;;3.80;;
58250;SDS011;51449;51.676;5.812;2023-04-07T11:28:10;10.10;;;4.40;;
58250;SDS011;51449;51.676;5.812;2023-04-07T11:30:33;13.03;;;4.77;;
58250;SDS011;51449;51.676;5.812;2023-04-07T11:32:56;11.20;;;4.97;;
58250;SDS011;51449;51.676;5.812;2023-04-07T11:35:18;11.87;;;4.63;;
58250;SDS011;51449;51.676;5.812;2023-04-07T11:37:40;11.73;;;4.47;;
58250;SDS011;51449;51.676;5.812;2023-04-07T11:40:03;10.43;;;5.17;;
58250;SDS011;51449;51.676;5.812;2023-04-07T11:44:52;7.93;;;4.37;;
58250;SDS011;51449;51.676;5.812;2023-04-07T11:47:14;8.03;;;4.30;;
58250;SDS011;51449;51.676;5.812;2023-04-07T11:49:43;10.63;;;4.17;;
58250;SDS011;51449;51.676;5.812;2023-04-07T11:52:09;8.43;;;4.00;;
58250;SDS011;51449;51.676;5.812;2023-04-07T11:55:05;11.47;;;4.37;;
58250;SDS011;51449;51.676;5.812;2023-04-07T11:57:24;6.67;;;3.80;;
58250;SDS011;51449;51.676;5.812;2023-04-07T11:59:47;10.23;;;4.57;;
58250;SDS011;51449;51.676;5.812;2023-04-07T12:02:10;11.50;;;4.83;;
58250;SDS011;51449;51.676;5.812;2023-04-07T12:04:32;11.40;;;5.00;;
58250;SDS011;51449;51.676;5.812;2023-04-07T12:06:54;8.87;;;4.37;;
58250;SDS011;51449;51.676;5.812;2023-04-07T12:09:30;11.23;;;4.60;;
58250;SDS011;51449;51.676;5.812;2023-04-07T12:11:56;10.87;;;4.77;;
58250;SDS011;51449;51.676;5.812;2023-04-07T12:14:19;10.50;;;4.60;;
58250;SDS011;51449;51.676;5.812;2023-04-07T12:16:41;12.80;;;5.30;;
58250;SDS011;51449;51.676;5.812;2023-04-07T12:19:03;9.40;;;4.20;;
58250;SDS011;51449;51.676;5.812;2023-04-07T12:21:25;11.20;;;4.60;;
58250;SDS011;51449;51.676;5.812;2023-04-07T12:23:47;9.63;;;4.50;;
58250;SDS011;51449;51.676;5.812;2023-04-07T12:26:12;12.27;;;5.10;;
58250;SDS011;51449;51.676;5.812;2023-04-07T12:28:34;11.53;;;4.57;;
58250;SDS011;51449;51.676;5.812;2023-04-07T12:30:56;14.23;;;5.03;;
58250;SDS011;51449;51.676;5.812;2023-04-07T12:33:17;12.80;;;4.83;;
58250;SDS011;51449;51.676;5.812;2023-04-07T12:35:40;11.57;;;4.43;;
58250;SDS011;51449;51.676;5.812;2023-04-07T12:38:02;12.90;;;5.00;;
58250;SDS011;51449;51.676;5.812;2023-04-07T12:40:23;13.70;;;5.63;;
58250;SDS011;51449;51.676;5.812;2023-04-07T12:42:46;14.30;;;5.00;;
58250;SDS011;51449;51.676;5.812;2023-04-07T12:45:08;10.53;;;4.30;;
58250;SDS011;51449;51.676;5.812;2023-04-07T12:47:31;11.23;;;4.67;;
58250;SDS011;51449;51.676;5.812;2023-04-07T12:49:53;11.97;;;4.23;;
58250;SDS011;51449;51.676;5.812;2023-04-07T12:52:15;7.43;;;4.27;;
58250;SDS011;51449;51.676;5.812;2023-04-07T12:54:37;10.40;;;4.93;;
58250;SDS011;51449;51.676;5.812;2023-04-07T12:56:59;11.50;;;4.77;;
58250;SDS011;51449;51.676;5.812;2023-04-07T12:59:21;8.13;;;5.27;;
58250;SDS011;51449;51.676;5.812;2023-04-07T13:01:44;10.97;;;4.73;;
58250;SDS011;51449;51.676;5.812;2023-04-07T13:04:09;14.13;;;5.47;;
58250;SDS011;51449;51.676;5.812;2023-04-07T13:06:31;14.93;;;6.07;;
58250;SDS011;51449;51.676;5.812;2023-04-07T13:08:54;14.13;;;6.50;;
58250;SDS011;51449;51.676;5.812;2023-04-07T13:11:16;12.50;;;6.27;;
58250;SDS011;51449;51.676;5.812;2023-04-07T13:13:39;12.87;;;5.60;;
58250;SDS011;51449;51.676;5.812;2023-04-07T13:16:00;13.10;;;6.07;;
58250;SDS011;51449;51.676;5.812;2023-04-07T13:18:22;12.10;;;6.80;;
58250;SDS011;51449;51.676;5.812;2023-04-07T13:20:45;14.80;;;7.33;;
58250;SDS011;51449;51.676;5.812;2023-04-07T13:23:24;12.27;;;6.47;;
58250;SDS011;51449;51.676;5.812;2023-04-07T13:25:46;16.93;;;8.70;;
58250;SDS011;51449;51.676;5.812;2023-04-07T13:28:09;16.30;;;7.73;;
58250;SDS011;51449;51.676;5.812;2023-04-07T13:30:32;10.67;;;5.90;;
58250;SDS011;51449;51.676;5.812;2023-04-07T13:32:54;18.17;;;7.30;;
58250;SDS011;51449;51.676;5.812;2023-04-07T13:35:16;8.60;;;5.10;;
58250;SDS011;51449;51.676;5.812;2023-04-07T13:37:39;14.90;;;6.10;;
58250;SDS011;51449;51.676;5.812;2023-04-07T13:40:00;16.17;;;5.60;;
58250;SDS011;51449;51.676;5.812;2023-04-07T13:42:22;9.00;;;5.30;;
58250;SDS011;51449;51.676;5.812;2023-04-07T13:44:46;11.57;;;5.00;;
58250;SDS011;51449;51.676;5.812;2023-04-07T13:47:08;11.27;;;5.23;;
58250;SDS011;51449;51.676;5.812;2023-04-07T13:49:30;12.53;;;5.57;;
58250;SDS011;51449;51.676;5.812;2023-04-07T13:51:52;12.90;;;4.90;;
58250;SDS011;51449;51.676;5.812;2023-04-07T13:54:15;13.17;;;6.33;;
58250;SDS011;51449;51.676;5.812;2023-04-07T13:56:39;13.80;;;5.70;;
58250;SDS011;51449;51.676;5.812;2023-04-07T13:59:01;11.63;;;6.30;;
58250;SDS011;51449;51.676;5.812;2023-04-07T14:01:23;11.23;;;6.20;;
58250;SDS011;51449;51.676;5.812;2023-04-07T14:03:45;11.10;;;5.67;;
58250;SDS011;51449;51.676;5.812;2023-04-07T14:06:08;8.13;;;5.63;;
58250;SDS011;51449;51.676;5.812;2023-04-07T14:08:30;9.83;;;5.60;;
58250;SDS011;51449;51.676;5.812;2023-04-07T14:10:52;10.23;;;5.53;;
58250;SDS011;51449;51.676;5.812;2023-04-07T14:13:14;12.63;;;5.53;;
58250;SDS011;51449;51.676;5.812;2023-04-07T14:15:37;15.10;;;6.50;;
58250;SDS011;51449;51.676;5.812;2023-04-07T14:17:59;12.87;;;5.67;;
58250;SDS011;51449;51.676;5.812;2023-04-07T14:20:21;9.20;;;5.10;;
58250;SDS011;51449;51.676;5.812;2023-04-07T14:22:45;9.35;;;5.45;;
58250;SDS011;51449;51.676;5.812;2023-04-07T14:25:07;9.43;;;4.50;;
58250;SDS011;51449;51.676;5.812;2023-04-07T14:27:31;10.63;;;5.32;;
58250;SDS011;51449;51.676;5.812;2023-04-07T14:29:54;12.97;;;5.00;;
58250;SDS011;51449;51.676;5.812;2023-04-07T14:32:18;11.63;;;5.32;;